sensor_id;sensor_type;location;lat;lon;timestamp;P1;durP1;ratioP1;P2;durP2;ratioP2
78796;SDS011;68145;52.514;13.460;2023-06-14T00:04:15;3.97;;;2.63;;
78796;SDS011;68145;52.514;13.460;2023-06-14T00:06:41;5.63;;;2.47;;
78796;SDS011;68145;52.514;13.460;2023-06-14T00:09:10;3.63;;;2.20;;
78796;SDS011;68145;52.514;13.460;2023-06-14T00:14:03;3.25;;;2.42;;
78796;SDS011;68145;52.514;13.460;2023-06-14T00:16:29;3.42;;;2.40;;
78796;SDS011;68145;52.514;13.460;2023-06-14T00:18:58;4.63;;;2.50;;
78796;SDS011;68145;52.514;13.460;2023-06-14T00:21:24;5.15;;;2.40;;
78796;SDS011;68145;52.514;13.460;2023-06-14T00:23:50;3.58;;;2.50;;
78796;SDS011;68145;52.514;13.460;2023-06-14T00:26:16;3.20;;;2.35;;
78796;SDS011;68145;52.514;13.460;2023-06-14T00:28:42;3.85;;;2.30;;
78796;SDS011;68145;52.514;13.460;2023-06-14T00:31:08;4.88;;;2.50;;
78796;SDS011;68145;52.514;13.460;2023-06-14T00:33:34;3.67;;;2.60;;
78796;SDS011;68145;52.514;13.460;2023-06-14T00:36:00;3.80;;;2.35;;
78796;SDS011;68145;52.514;13.460;2023-06-14T00:38:26;3.15;;;2.20;;
78796;SDS011;68145;52.514;13.460;2023-06-14T00:40:52;5.25;;;2.78;;
78796;SDS011;68145;52.514;13.460;2023-06-14T00:43:18;3.83;;;2.50;;
78796;SDS011;68145;52.514;13.460;2023-06-14T00:45:44;3.60;;;2.70;;
78796;SDS011;68145;52.514;13.460;2023-06-14T00:48:11;4.63;;;2.85;;
78796;SDS011;68145;52.514;13.460;2023-06-14T00:50:38;4.00;;;2.75;;
78796;SDS011;68145;52.514;13.460;2023-06-14T00:53:05;3.22;;;2.50;;
78796;SDS011;68145;52.514;13.460;2023-06-14T00:55:32;6.63;;;2.88;;
78796;SDS011;68145;52.514;13.460;2023-06-14T00:57:58;4.18;;;2.72;;
78796;SDS011;68145;52.514;13.460;2023-06-14T01:00:24;3.55;;;2.55;;
78796;SDS011;68145;52.514;13.460;2023-06-14T01:02:50;4.32;;;2.63;;
78796;SDS011;68145;52.514;13.460;2023-06-14T01:05:16;4.10;;;2.70;;
78796;SDS011;68145;52.514;13.460;2023-06-14T01:13:13;4.32;;;2.80;;
78796;SDS011;68145;52.514;13.460;2023-06-14T01:15:41;4.13;;;2.85;;
78796;SDS011;68145;52.514;13.460;2023-06-14T01:18:09;4.70;;;3.20;;
78796;SDS011;68145;52.514;13.460;2023-06-14T01:20:42;4.75;;;2.60;;
78796;SDS011;68145;52.514;13.460;2023-06-14T01:23:10;4.25;;;3.15;;
78796;SDS011;68145;52.514;13.460;2023-06-14T01:25:40;4.40;;;2.92;;
78796;SDS011;68145;52.514;13.460;2023-06-14T01:28:10;4.15;;;2.95;;
78796;SDS011;68145;52.514;13.460;2023-06-14T01:30:37;5.20;;;3.10;;
78796;SDS011;68145;52.514;13.460;2023-06-14T01:33:03;6.85;;;3.15;;
78796;SDS011;68145;52.514;13.460;2023-06-14T01:35:30;4.75;;;2.65;;
78796;SDS011;68145;52.514;13.460;2023-06-14T01:37:57;4.32;;;2.95;;
78796;SDS011;68145;52.514;13.460;2023-06-14T01:40:23;3.80;;;3.15;;
78796;SDS011;68145;52.514;13.460;2023-06-14T01:42:50;5.20;;;3.72;;
78796;SDS011;68145;52.514;13.460;2023-06-14T01:45:16;4.28;;;2.83;;
78796;SDS011;68145;52.514;13.460;2023-06-14T01:47:43;6.35;;;3.30;;
78796;SDS011;68145;52.514;13.460;2023-06-14T01:50:10;5.57;;;3.20;;
78796;SDS011;68145;52.514;13.460;2023-06-14T01:52:36;6.07;;;3.13;;
78796;SDS011;68145;52.514;13.460;2023-06-14T01:55:06;5.93;;;3.20;;
78796;SDS011;68145;52.514;13.460;2023-06-14T01:57:33;4.05;;;3.22;;
78796;SDS011;68145;52.514;13.460;2023-06-14T01:59:59;4.90;;;3.40;;
78796;SDS011;68145;52.514;13.460;2023-06-14T02:02:25;5.93;;;3.10;;
78796;SDS011;68145;52.514;13.460;2023-06-14T02:04:51;4.78;;;3.20;;
78796;SDS011;68145;52.514;13.460;2023-06-14T02:07:17;4.75;;;3.28;;
78796;SDS011;68145;52.514;13.460;2023-06-14T02:09:43;4.82;;;3.38;;
78796;SDS011;68145;52.514;13.460;2023-06-14T02:12:09;5.80;;;3.28;;
78796;SDS011;68145;52.514;13.460;2023-06-14T02:14:36;7.43;;;3.80;;
78796;SDS011;68145;52.514;13.460;2023-06-14T02:17:03;4.78;;;3.40;;
78796;SDS011;68145;52.514;13.460;2023-06-14T02:19:29;4.78;;;3.30;;
78796;SDS011;68145;52.514;13.460;2023-06-14T02:21:56;4.80;;;3.25;;
78796;SDS011;68145;52.514;13.460;2023-06-14T02:24:22;5.80;;;4.15;;
78796;SDS011;68145;52.514;13.460;2023-06-14T02:26:48;4.25;;;3.22;;
78796;SDS011;68145;52.514;13.460;2023-06-14T02:29:15;6.85;;;3.83;;
78796;SDS011;68145;52.514;13.460;2023-06-14T02:31:41;5.13;;;3.42;;
78796;SDS011;68145;52.514;13.460;2023-06-14T02:34:07;6.10;;;3.05;;
78796;SDS011;68145;52.514;13.460;2023-06-14T02:36:34;5.03;;;3.45;;
78796;SDS011;68145;52.514;13.460;2023-06-14T02:39:06;5.82;;;3.88;;
78796;SDS011;68145;52.514;13.460;2023-06-14T02:41:34;5.45;;;3.38;;
78796;SDS011;68145;52.514;13.460;2023-06-14T02:44:00;5.22;;;3.58;;
78796;SDS011;68145;52.514;13.460;2023-06-14T02:46:26;6.03;;;3.90;;
78796;SDS011;68145;52.514;13.460;2023-06-14T02:48:52;4.82;;;3.25;;
78796;SDS011;68145;52.514;13.460;2023-06-14T02:51:18;7.22;;;3.75;;
78796;SDS011;68145;52.514;13.460;2023-06-14T02:53:44;4.68;;;3.65;;
78796;SDS011;68145;52.514;13.460;2023-06-14T02:56:10;7.70;;;4.38;;
78796;SDS011;68145;52.514;13.460;2023-06-14T02:58:37;6.45;;;3.88;;
78796;SDS011;68145;52.514;13.460;2023-06-14T03:01:04;5.35;;;4.03;;
78796;SDS011;68145;52.514;13.460;2023-06-14T03:03:32;4.80;;;3.45;;
78796;SDS011;68145;52.514;13.460;2023-06-14T03:05:58;7.25;;;3.85;;
78796;SDS011;68145;52.514;13.460;2023-06-14T03:08:30;5.85;;;3.90;;
78796;SDS011;68145;52.514;13.460;2023-06-14T03:10:58;5.75;;;4.00;;
78796;SDS011;68145;52.514;13.460;2023-06-14T03:13:24;5.50;;;3.60;;
78796;SDS011;68145;52.514;13.460;2023-06-14T03:15:51;4.60;;;3.75;;
78796;SDS011;68145;52.514;13.460;2023-06-14T03:18:17;6.47;;;3.88;;
78796;SDS011;68145;52.514;13.460;2023-06-14T03:20:44;6.25;;;4.18;;
78796;SDS011;68145;52.514;13.460;2023-06-14T03:23:13;6.13;;;4.22;;
78796;SDS011;68145;52.514;13.460;2023-06-14T03:25:39;9.75;;;4.70;;
78796;SDS011;68145;52.514;13.460;2023-06-14T03:30:33;5.82;;;4.10;;
78796;SDS011;68145;52.514;13.460;2023-06-14T03:32:59;4.93;;;3.55;;
78796;SDS011;68145;52.514;13.460;2023-06-14T03:35:28;6.30;;;4.65;;
78796;SDS011;68145;52.514;13.460;2023-06-14T03:37:54;5.18;;;3.92;;
78796;SDS011;68145;52.514;13.460;2023-06-14T03:40:21;5.40;;;3.97;;
78796;SDS011;68145;52.514;13.460;2023-06-14T03:42:48;5.60;;;3.80;;
78796;SDS011;68145;52.514;13.460;2023-06-14T03:45:14;6.38;;;3.88;;
78796;SDS011;68145;52.514;13.460;2023-06-14T03:47:40;6.82;;;4.25;;
78796;SDS011;68145;52.514;13.460;2023-06-14T03:50:06;6.40;;;4.00;;
78796;SDS011;68145;52.514;13.460;2023-06-14T03:52:33;5.50;;;3.55;;
78796;SDS011;68145;52.514;13.460;2023-06-14T03:54:59;6.03;;;4.38;;
78796;SDS011;68145;52.514;13.460;2023-06-14T03:57:25;7.72;;;4.35;;
78796;SDS011;68145;52.514;13.460;2023-06-14T03:59:51;6.32;;;4.30;;
78796;SDS011;68145;52.514;13.460;2023-06-14T04:02:17;6.18;;;4.07;;
78796;SDS011;68145;52.514;13.460;2023-06-14T04:04:44;7.35;;;4.10;;
78796;SDS011;68145;52.514;13.460;2023-06-14T04:07:11;4.70;;;3.83;;
78796;SDS011;68145;52.514;13.460;2023-06-14T04:09:37;5.88;;;3.97;;
78796;SDS011;68145;52.514;13.460;2023-06-14T04:12:04;6.18;;;4.28;;
78796;SDS011;68145;52.514;13.460;2023-06-14T04:14:30;6.57;;;4.40;;
78796;SDS011;68145;52.514;13.460;2023-06-14T04:16:58;5.47;;;3.90;;
78796;SDS011;68145;52.514;13.460;2023-06-14T04:19:24;5.55;;;4.03;;
78796;SDS011;68145;52.514;13.460;2023-06-14T04:21:50;7.97;;;4.55;;
78796;SDS011;68145;52.514;13.460;2023-06-14T04:24:16;6.25;;;4.28;;
78796;SDS011;68145;52.514;13.460;2023-06-14T04:26:43;6.32;;;4.55;;
78796;SDS011;68145;52.514;13.460;2023-06-14T04:29:13;8.18;;;5.13;;
78796;SDS011;68145;52.514;13.460;2023-06-14T04:31:41;8.05;;;4.90;;
78796;SDS011;68145;52.514;13.460;2023-06-14T04:34:07;9.95;;;4.30;;
78796;SDS011;68145;52.514;13.460;2023-06-14T04:36:34;7.30;;;4.40;;
78796;SDS011;68145;52.514;13.460;2023-06-14T04:39:04;8.77;;;5.10;;
78796;SDS011;68145;52.514;13.460;2023-06-14T04:41:31;12.68;;;5.78;;
78796;SDS011;68145;52.514;13.460;2023-06-14T04:43:57;9.32;;;5.07;;
78796;SDS011;68145;52.514;13.460;2023-06-14T04:46:27;7.13;;;5.07;;
78796;SDS011;68145;52.514;13.460;2023-06-14T04:48:53;6.03;;;4.03;;
78796;SDS011;68145;52.514;13.460;2023-06-14T04:51:20;7.63;;;4.85;;
78796;SDS011;68145;52.514;13.460;2023-06-14T04:53:47;7.68;;;5.00;;
78796;SDS011;68145;52.514;13.460;2023-06-14T04:56:14;6.25;;;4.53;;
78796;SDS011;68145;52.514;13.460;2023-06-14T04:58:41;7.93;;;4.97;;
78796;SDS011;68145;52.514;13.460;2023-06-14T05:01:08;10.07;;;4.70;;
78796;SDS011;68145;52.514;13.460;2023-06-14T05:03:35;6.97;;;4.78;;
78796;SDS011;68145;52.514;13.460;2023-06-14T05:06:01;7.53;;;4.55;;
78796;SDS011;68145;52.514;13.460;2023-06-14T05:08:27;7.82;;;4.60;;
78796;SDS011;68145;52.514;13.460;2023-06-14T05:10:53;5.95;;;4.57;;
78796;SDS011;68145;52.514;13.460;2023-06-14T05:13:19;5.05;;;3.85;;
78796;SDS011;68145;52.514;13.460;2023-06-14T05:20:40;7.85;;;5.25;;
78796;SDS011;68145;52.514;13.460;2023-06-14T05:23:07;8.50;;;5.47;;
78796;SDS011;68145;52.514;13.460;2023-06-14T05:25:33;6.80;;;4.25;;
78796;SDS011;68145;52.514;13.460;2023-06-14T05:27:59;6.65;;;4.50;;
78796;SDS011;68145;52.514;13.460;2023-06-14T05:30:25;5.85;;;4.28;;
78796;SDS011;68145;52.514;13.460;2023-06-14T05:32:51;6.68;;;4.68;;
78796;SDS011;68145;52.514;13.460;2023-06-14T05:35:17;7.43;;;5.22;;
78796;SDS011;68145;52.514;13.460;2023-06-14T05:37:44;7.18;;;4.53;;
78796;SDS011;68145;52.514;13.460;2023-06-14T05:40:10;7.82;;;4.90;;
78796;SDS011;68145;52.514;13.460;2023-06-14T05:42:36;9.65;;;5.00;;
78796;SDS011;68145;52.514;13.460;2023-06-14T05:45:02;8.25;;;4.93;;
78796;SDS011;68145;52.514;13.460;2023-06-14T05:47:28;7.72;;;5.28;;
78796;SDS011;68145;52.514;13.460;2023-06-14T05:49:55;8.57;;;4.70;;
78796;SDS011;68145;52.514;13.460;2023-06-14T05:52:21;7.65;;;5.00;;
78796;SDS011;68145;52.514;13.460;2023-06-14T05:54:47;6.63;;;4.68;;
78796;SDS011;68145;52.514;13.460;2023-06-14T05:57:14;7.82;;;4.97;;
78796;SDS011;68145;52.514;13.460;2023-06-14T05:59:40;6.97;;;4.53;;
78796;SDS011;68145;52.514;13.460;2023-06-14T06:02:06;8.00;;;4.93;;
78796;SDS011;68145;52.514;13.460;2023-06-14T06:04:32;5.70;;;4.30;;
78796;SDS011;68145;52.514;13.460;2023-06-14T06:06:58;7.20;;;4.68;;
78796;SDS011;68145;52.514;13.460;2023-06-14T06:09:24;5.85;;;4.55;;
78796;SDS011;68145;52.514;13.460;2023-06-14T06:11:50;8.63;;;5.00;;
78796;SDS011;68145;52.514;13.460;2023-06-14T06:14:16;6.40;;;4.75;;
78796;SDS011;68145;52.514;13.460;2023-06-14T06:16:42;8.00;;;4.90;;
78796;SDS011;68145;52.514;13.460;2023-06-14T06:19:08;5.30;;;4.30;;
78796;SDS011;68145;52.514;13.460;2023-06-14T06:21:35;6.78;;;4.28;;
78796;SDS011;68145;52.514;13.460;2023-06-14T06:24:01;5.88;;;4.03;;
78796;SDS011;68145;52.514;13.460;2023-06-14T06:26:30;5.60;;;4.00;;
78796;SDS011;68145;52.514;13.460;2023-06-14T06:28:57;6.05;;;4.28;;
78796;SDS011;68145;52.514;13.460;2023-06-14T06:31:23;6.05;;;3.80;;
78796;SDS011;68145;52.514;13.460;2023-06-14T06:33:49;9.98;;;4.18;;
78796;SDS011;68145;52.514;13.460;2023-06-14T06:36:15;5.82;;;4.10;;
78796;SDS011;68145;52.514;13.460;2023-06-14T06:38:41;7.47;;;4.28;;
78796;SDS011;68145;52.514;13.460;2023-06-14T06:41:07;7.13;;;4.28;;
78796;SDS011;68145;52.514;13.460;2023-06-14T06:43:33;5.60;;;4.18;;
78796;SDS011;68145;52.514;13.460;2023-06-14T06:45:59;5.95;;;4.30;;
78796;SDS011;68145;52.514;13.460;2023-06-14T06:48:25;6.88;;;3.95;;
78796;SDS011;68145;52.514;13.460;2023-06-14T06:50:51;5.75;;;3.45;;
78796;SDS011;68145;52.514;13.460;2023-06-14T06:53:17;6.80;;;4.72;;
78796;SDS011;68145;52.514;13.460;2023-06-14T06:55:44;5.90;;;4.03;;
78796;SDS011;68145;52.514;13.460;2023-06-14T06:58:11;7.43;;;4.88;;
78796;SDS011;68145;52.514;13.460;2023-06-14T07:00:37;6.57;;;4.40;;
78796;SDS011;68145;52.514;13.460;2023-06-14T07:03:03;6.75;;;4.15;;
78796;SDS011;68145;52.514;13.460;2023-06-14T07:05:29;7.20;;;5.25;;
78796;SDS011;68145;52.514;13.460;2023-06-14T07:07:56;7.22;;;4.68;;
78796;SDS011;68145;52.514;13.460;2023-06-14T07:10:22;7.05;;;4.32;;
78796;SDS011;68145;52.514;13.460;2023-06-14T07:12:49;5.55;;;4.05;;
78796;SDS011;68145;52.514;13.460;2023-06-14T07:15:15;7.75;;;4.35;;
78796;SDS011;68145;52.514;13.460;2023-06-14T07:17:42;4.95;;;4.20;;
78796;SDS011;68145;52.514;13.460;2023-06-14T07:20:08;9.95;;;4.28;;
78796;SDS011;68145;52.514;13.460;2023-06-14T07:22:45;6.40;;;3.90;;
78796;SDS011;68145;52.514;13.460;2023-06-14T07:25:12;6.18;;;4.28;;
78796;SDS011;68145;52.514;13.460;2023-06-14T07:27:39;7.82;;;4.45;;
78796;SDS011;68145;52.514;13.460;2023-06-14T07:30:05;8.65;;;4.47;;
78796;SDS011;68145;52.514;13.460;2023-06-14T07:32:32;5.70;;;4.07;;
78796;SDS011;68145;52.514;13.460;2023-06-14T07:34:58;6.72;;;4.15;;
78796;SDS011;68145;52.514;13.460;2023-06-14T07:37:24;7.97;;;4.00;;
78796;SDS011;68145;52.514;13.460;2023-06-14T07:39:50;5.45;;;4.18;;
78796;SDS011;68145;52.514;13.460;2023-06-14T07:42:16;5.25;;;4.03;;
78796;SDS011;68145;52.514;13.460;2023-06-14T07:44:42;5.13;;;3.88;;
78796;SDS011;68145;52.514;13.460;2023-06-14T07:47:08;8.65;;;4.43;;
78796;SDS011;68145;52.514;13.460;2023-06-14T07:49:35;9.82;;;4.13;;
78796;SDS011;68145;52.514;13.460;2023-06-14T07:52:01;5.28;;;3.55;;
78796;SDS011;68145;52.514;13.460;2023-06-14T07:54:27;8.98;;;4.28;;
78796;SDS011;68145;52.514;13.460;2023-06-14T07:56:54;6.55;;;4.50;;
78796;SDS011;68145;52.514;13.460;2023-06-14T07:59:21;7.50;;;6.15;;
78796;SDS011;68145;52.514;13.460;2023-06-14T08:01:47;6.93;;;4.35;;
78796;SDS011;68145;52.514;13.460;2023-06-14T08:04:13;10.98;;;5.00;;
78796;SDS011;68145;52.514;13.460;2023-06-14T08:06:40;9.23;;;4.30;;
78796;SDS011;68145;52.514;13.460;2023-06-14T08:09:09;8.13;;;3.97;;
78796;SDS011;68145;52.514;13.460;2023-06-14T08:11:36;8.63;;;4.45;;
78796;SDS011;68145;52.514;13.460;2023-06-14T08:14:02;6.93;;;3.95;;
78796;SDS011;68145;52.514;13.460;2023-06-14T08:16:28;5.53;;;3.47;;
78796;SDS011;68145;52.514;13.460;2023-06-14T08:18:55;9.68;;;3.85;;
78796;SDS011;68145;52.514;13.460;2023-06-14T08:21:21;9.68;;;4.20;;
78796;SDS011;68145;52.514;13.460;2023-06-14T08:23:48;6.88;;;3.90;;
78796;SDS011;68145;52.514;13.460;2023-06-14T08:26:14;4.85;;;3.70;;
78796;SDS011;68145;52.514;13.460;2023-06-14T08:28:40;7.10;;;3.72;;
78796;SDS011;68145;52.514;13.460;2023-06-14T08:31:06;4.88;;;3.60;;
78796;SDS011;68145;52.514;13.460;2023-06-14T08:33:32;6.03;;;3.53;;
78796;SDS011;68145;52.514;13.460;2023-06-14T08:35:58;9.20;;;3.78;;
78796;SDS011;68145;52.514;13.460;2023-06-14T08:38:25;5.65;;;3.60;;
78796;SDS011;68145;52.514;13.460;2023-06-14T08:40:51;7.43;;;3.83;;
78796;SDS011;68145;52.514;13.460;2023-06-14T08:43:18;5.07;;;3.55;;
78796;SDS011;68145;52.514;13.460;2023-06-14T08:45:46;6.38;;;3.47;;
78796;SDS011;68145;52.514;13.460;2023-06-14T08:48:12;7.70;;;3.42;;
78796;SDS011;68145;52.514;13.460;2023-06-14T08:50:42;6.47;;;3.13;;
78796;SDS011;68145;52.514;13.460;2023-06-14T08:53:09;5.72;;;3.22;;
78796;SDS011;68145;52.514;13.460;2023-06-14T08:55:38;4.78;;;3.05;;
78796;SDS011;68145;52.514;13.460;2023-06-14T08:58:04;4.88;;;3.10;;
78796;SDS011;68145;52.514;13.460;2023-06-14T09:00:31;5.55;;;3.50;;
78796;SDS011;68145;52.514;13.460;2023-06-14T09:02:58;6.15;;;4.20;;
78796;SDS011;68145;52.514;13.460;2023-06-14T09:05:24;5.50;;;3.72;;
78796;SDS011;68145;52.514;13.460;2023-06-14T09:07:50;10.15;;;3.92;;
78796;SDS011;68145;52.514;13.460;2023-06-14T09:10:17;6.65;;;3.83;;
78796;SDS011;68145;52.514;13.460;2023-06-14T09:12:44;9.60;;;3.53;;
78796;SDS011;68145;52.514;13.460;2023-06-14T09:15:10;5.50;;;4.20;;
78796;SDS011;68145;52.514;13.460;2023-06-14T09:17:37;3.70;;;2.70;;
78796;SDS011;68145;52.514;13.460;2023-06-14T09:20:04;4.30;;;2.90;;
78796;SDS011;68145;52.514;13.460;2023-06-14T09:22:42;6.40;;;3.97;;
78796;SDS011;68145;52.514;13.460;2023-06-14T09:25:09;6.13;;;3.70;;
78796;SDS011;68145;52.514;13.460;2023-06-14T09:27:35;6.47;;;3.90;;
78796;SDS011;68145;52.514;13.460;2023-06-14T09:30:05;4.35;;;3.65;;
78796;SDS011;68145;52.514;13.460;2023-06-14T09:32:35;5.57;;;3.60;;
78796;SDS011;68145;52.514;13.460;2023-06-14T09:35:02;5.00;;;3.72;;
78796;SDS011;68145;52.514;13.460;2023-06-14T09:37:28;6.32;;;3.13;;
78796;SDS011;68145;52.514;13.460;2023-06-14T09:39:55;4.25;;;3.15;;
78796;SDS011;68145;52.514;13.460;2023-06-14T09:42:21;5.85;;;3.45;;
78796;SDS011;68145;52.514;13.460;2023-06-14T09:44:51;4.65;;;3.63;;
78796;SDS011;68145;52.514;13.460;2023-06-14T09:47:17;4.72;;;3.45;;
78796;SDS011;68145;52.514;13.460;2023-06-14T09:49:44;6.13;;;3.17;;
78796;SDS011;68145;52.514;13.460;2023-06-14T09:52:10;8.93;;;3.80;;
78796;SDS011;68145;52.514;13.460;2023-06-14T09:54:45;8.05;;;3.47;;
78796;SDS011;68145;52.514;13.460;2023-06-14T09:57:13;6.82;;;3.83;;
78796;SDS011;68145;52.514;13.460;2023-06-14T09:59:43;9.95;;;5.63;;
78796;SDS011;68145;52.514;13.460;2023-06-14T10:02:27;5.72;;;3.72;;
78796;SDS011;68145;52.514;13.460;2023-06-14T10:05:12;5.47;;;3.33;;
78796;SDS011;68145;52.514;13.460;2023-06-14T10:07:53;5.85;;;2.88;;
78796;SDS011;68145;52.514;13.460;2023-06-14T10:10:21;6.30;;;3.63;;
78796;SDS011;68145;52.514;13.460;2023-06-14T10:12:47;7.72;;;3.67;;
78796;SDS011;68145;52.514;13.460;2023-06-14T10:15:16;7.13;;;3.65;;
78796;SDS011;68145;52.514;13.460;2023-06-14T10:20:21;5.22;;;2.95;;
78796;SDS011;68145;52.514;13.460;2023-06-14T10:22:58;8.25;;;3.70;;
78796;SDS011;68145;52.514;13.460;2023-06-14T10:25:26;6.47;;;4.47;;
78796;SDS011;68145;52.514;13.460;2023-06-14T10:27:53;5.10;;;3.88;;
78796;SDS011;68145;52.514;13.460;2023-06-14T10:30:27;5.30;;;3.33;;
78796;SDS011;68145;52.514;13.460;2023-06-14T10:33:03;5.15;;;3.65;;
78796;SDS011;68145;52.514;13.460;2023-06-14T10:35:30;6.72;;;5.20;;
78796;SDS011;68145;52.514;13.460;2023-06-14T10:38:05;7.65;;;3.22;;
78796;SDS011;68145;52.514;13.460;2023-06-14T10:40:36;6.60;;;3.67;;
78796;SDS011;68145;52.514;13.460;2023-06-14T10:43:20;6.15;;;3.72;;
78796;SDS011;68145;52.514;13.460;2023-06-14T10:48:32;11.40;;;5.75;;
78796;SDS011;68145;52.514;13.460;2023-06-14T10:51:01;10.07;;;5.05;;
78796;SDS011;68145;52.514;13.460;2023-06-14T10:53:27;5.85;;;3.78;;
78796;SDS011;68145;52.514;13.460;2023-06-14T10:55:53;6.07;;;3.92;;
78796;SDS011;68145;52.514;13.460;2023-06-14T10:58:22;8.02;;;5.00;;
78796;SDS011;68145;52.514;13.460;2023-06-14T11:00:48;10.73;;;5.30;;
78796;SDS011;68145;52.514;13.460;2023-06-14T11:05:54;5.28;;;2.78;;
78796;SDS011;68145;52.514;13.460;2023-06-14T11:11:08;11.98;;;4.97;;
78796;SDS011;68145;52.514;13.460;2023-06-14T11:13:39;12.43;;;6.57;;
78796;SDS011;68145;52.514;13.460;2023-06-14T11:16:12;11.35;;;5.45;;
78796;SDS011;68145;52.514;13.460;2023-06-14T11:18:38;10.18;;;5.32;;
78796;SDS011;68145;52.514;13.460;2023-06-14T11:21:05;7.63;;;4.00;;
78796;SDS011;68145;52.514;13.460;2023-06-14T11:23:31;6.00;;;3.90;;
78796;SDS011;68145;52.514;13.460;2023-06-14T11:25:57;7.05;;;4.15;;
78796;SDS011;68145;52.514;13.460;2023-06-14T11:28:23;7.35;;;4.97;;
78796;SDS011;68145;52.514;13.460;2023-06-14T11:31:00;9.07;;;5.80;;
78796;SDS011;68145;52.514;13.460;2023-06-14T11:33:26;6.25;;;3.47;;
78796;SDS011;68145;52.514;13.460;2023-06-14T11:35:52;6.07;;;3.28;;
78796;SDS011;68145;52.514;13.460;2023-06-14T11:38:18;9.60;;;4.30;;
78796;SDS011;68145;52.514;13.460;2023-06-14T11:40:44;6.30;;;3.63;;
78796;SDS011;68145;52.514;13.460;2023-06-14T11:43:10;6.70;;;3.80;;
78796;SDS011;68145;52.514;13.460;2023-06-14T11:45:38;4.95;;;3.20;;
78796;SDS011;68145;52.514;13.460;2023-06-14T11:48:06;8.65;;;3.92;;
78796;SDS011;68145;52.514;13.460;2023-06-14T11:53:01;5.88;;;3.53;;
78796;SDS011;68145;52.514;13.460;2023-06-14T11:57:58;5.07;;;3.20;;
78796;SDS011;68145;52.514;13.460;2023-06-14T12:00:26;7.88;;;3.92;;
78796;SDS011;68145;52.514;13.460;2023-06-14T12:02:53;6.55;;;3.33;;
78796;SDS011;68145;52.514;13.460;2023-06-14T12:05:22;5.93;;;3.13;;
78796;SDS011;68145;52.514;13.460;2023-06-14T12:07:49;10.35;;;3.72;;
78796;SDS011;68145;52.514;13.460;2023-06-14T12:10:15;5.18;;;3.83;;
78796;SDS011;68145;52.514;13.460;2023-06-14T12:12:42;7.82;;;3.65;;
78796;SDS011;68145;52.514;13.460;2023-06-14T12:15:08;6.70;;;3.20;;
78796;SDS011;68145;52.514;13.460;2023-06-14T12:17:36;4.28;;;3.25;;
78796;SDS011;68145;52.514;13.460;2023-06-14T12:20:07;7.10;;;3.53;;
78796;SDS011;68145;52.514;13.460;2023-06-14T12:22:39;5.88;;;3.35;;
78796;SDS011;68145;52.514;13.460;2023-06-14T12:25:05;4.10;;;2.88;;
78796;SDS011;68145;52.514;13.460;2023-06-14T12:27:31;5.80;;;3.28;;
78796;SDS011;68145;52.514;13.460;2023-06-14T12:29:58;4.60;;;2.95;;
78796;SDS011;68145;52.514;13.460;2023-06-14T12:32:24;9.88;;;3.40;;
78796;SDS011;68145;52.514;13.460;2023-06-14T12:34:50;7.07;;;3.25;;
78796;SDS011;68145;52.514;13.460;2023-06-14T12:37:16;6.32;;;3.22;;
78796;SDS011;68145;52.514;13.460;2023-06-14T12:39:42;5.00;;;3.45;;
78796;SDS011;68145;52.514;13.460;2023-06-14T12:42:09;6.07;;;2.97;;
78796;SDS011;68145;52.514;13.460;2023-06-14T12:44:35;6.65;;;2.65;;
78796;SDS011;68145;52.514;13.460;2023-06-14T12:47:05;4.72;;;3.17;;
78796;SDS011;68145;52.514;13.460;2023-06-14T12:49:32;5.88;;;2.97;;
78796;SDS011;68145;52.514;13.460;2023-06-14T12:51:58;4.85;;;3.00;;
78796;SDS011;68145;52.514;13.460;2023-06-14T12:54:24;4.97;;;2.60;;
78796;SDS011;68145;52.514;13.460;2023-06-14T12:56:51;5.25;;;2.60;;
78796;SDS011;68145;52.514;13.460;2023-06-14T12:59:18;4.68;;;3.00;;
78796;SDS011;68145;52.514;13.460;2023-06-14T13:01:44;6.78;;;2.83;;
78796;SDS011;68145;52.514;13.460;2023-06-14T13:04:10;6.13;;;3.28;;
78796;SDS011;68145;52.514;13.460;2023-06-14T13:06:36;8.98;;;3.15;;
78796;SDS011;68145;52.514;13.460;2023-06-14T13:09:03;4.00;;;3.13;;
78796;SDS011;68145;52.514;13.460;2023-06-14T13:11:29;9.32;;;4.30;;
78796;SDS011;68145;52.514;13.460;2023-06-14T13:13:55;6.22;;;3.83;;
78796;SDS011;68145;52.514;13.460;2023-06-14T13:16:21;8.65;;;3.50;;
78796;SDS011;68145;52.514;13.460;2023-06-14T13:18:47;8.00;;;3.13;;
78796;SDS011;68145;52.514;13.460;2023-06-14T13:21:13;5.10;;;3.00;;
78796;SDS011;68145;52.514;13.460;2023-06-14T13:23:40;5.72;;;3.90;;
78796;SDS011;68145;52.514;13.460;2023-06-14T13:26:06;5.95;;;3.10;;
78796;SDS011;68145;52.514;13.460;2023-06-14T13:28:32;7.97;;;3.35;;
78796;SDS011;68145;52.514;13.460;2023-06-14T13:31:00;5.55;;;3.20;;
78796;SDS011;68145;52.514;13.460;2023-06-14T13:33:27;5.93;;;3.40;;
78796;SDS011;68145;52.514;13.460;2023-06-14T13:35:54;7.57;;;2.80;;
78796;SDS011;68145;52.514;13.460;2023-06-14T13:38:20;5.22;;;2.92;;
78796;SDS011;68145;52.514;13.460;2023-06-14T13:40:46;8.57;;;3.55;;
78796;SDS011;68145;52.514;13.460;2023-06-14T13:43:12;5.85;;;2.97;;
78796;SDS011;68145;52.514;13.460;2023-06-14T13:45:39;4.72;;;3.00;;
78796;SDS011;68145;52.514;13.460;2023-06-14T13:48:05;4.72;;;3.20;;
78796;SDS011;68145;52.514;13.460;2023-06-14T13:50:31;4.85;;;3.20;;
78796;SDS011;68145;52.514;13.460;2023-06-14T13:52:58;12.63;;;3.38;;
78796;SDS011;68145;52.514;13.460;2023-06-14T13:55:24;7.22;;;3.42;;
78796;SDS011;68145;52.514;13.460;2023-06-14T13:57:50;4.72;;;3.20;;
78796;SDS011;68145;52.514;13.460;2023-06-14T14:00:17;5.13;;;3.17;;
78796;SDS011;68145;52.514;13.460;2023-06-14T14:05:10;7.68;;;3.00;;
78796;SDS011;68145;52.514;13.460;2023-06-14T14:07:37;10.13;;;3.33;;
78796;SDS011;68145;52.514;13.460;2023-06-14T14:10:04;6.57;;;3.80;;
78796;SDS011;68145;52.514;13.460;2023-06-14T14:12:30;5.78;;;3.13;;
78796;SDS011;68145;52.514;13.460;2023-06-14T14:14:56;5.57;;;3.38;;
78796;SDS011;68145;52.514;13.460;2023-06-14T14:17:24;5.45;;;3.60;;
78796;SDS011;68145;52.514;13.460;2023-06-14T14:19:51;5.63;;;3.15;;
78796;SDS011;68145;52.514;13.460;2023-06-14T14:22:17;6.20;;;3.70;;
78796;SDS011;68145;52.514;13.460;2023-06-14T14:24:43;5.55;;;2.92;;
78796;SDS011;68145;52.514;13.460;2023-06-14T14:27:09;4.18;;;2.88;;
78796;SDS011;68145;52.514;13.460;2023-06-14T14:29:36;5.38;;;3.38;;
78796;SDS011;68145;52.514;13.460;2023-06-14T14:32:02;5.63;;;3.15;;
78796;SDS011;68145;52.514;13.460;2023-06-14T14:34:29;6.30;;;3.92;;
78796;SDS011;68145;52.514;13.460;2023-06-14T14:36:55;6.38;;;3.40;;
78796;SDS011;68145;52.514;13.460;2023-06-14T14:39:21;6.10;;;3.28;;
78796;SDS011;68145;52.514;13.460;2023-06-14T14:41:47;12.73;;;4.55;;
78796;SDS011;68145;52.514;13.460;2023-06-14T14:44:13;6.30;;;3.22;;
78796;SDS011;68145;52.514;13.460;2023-06-14T14:46:39;5.80;;;4.13;;
78796;SDS011;68145;52.514;13.460;2023-06-14T14:49:06;8.70;;;3.67;;
78796;SDS011;68145;52.514;13.460;2023-06-14T14:51:32;5.28;;;3.00;;
78796;SDS011;68145;52.514;13.460;2023-06-14T14:53:58;5.82;;;3.28;;
78796;SDS011;68145;52.514;13.460;2023-06-14T14:56:24;4.00;;;2.80;;
78796;SDS011;68145;52.514;13.460;2023-06-14T14:58:50;7.63;;;3.33;;
78796;SDS011;68145;52.514;13.460;2023-06-14T15:01:17;4.78;;;3.00;;
78796;SDS011;68145;52.514;13.460;2023-06-14T15:03:43;5.15;;;2.90;;
78796;SDS011;68145;52.514;13.460;2023-06-14T15:06:09;4.05;;;3.03;;
78796;SDS011;68145;52.514;13.460;2023-06-14T15:08:35;3.75;;;2.60;;